Time;durP1;ratioP1;P1;durP2;ratioP2;P2;SDS_P1;SDS_P2;PMS_P1;PMS_P2;Temp;Humidity;BMP_temperature;BMP_pressure;BME280_temperature;BME280_humidity;BME280_pressure;Samples;Min_cycle;Max_cycle;Signal;HPM_P1;HPM_P2
2022/10/30 00:01:55;;;;;;;40.20;27.00;;;;;;;;;;6188225;23;20404;-80
2022/10/30 00:04:21;;;;;;;39.72;25.60;;;;;;;;;;6214336;23;20062;-80
2022/10/30 00:06:47;;;;;;;41.60;24.70;;;;;;;;;;6214111;23;20000;-79
2022/10/30 00:09:13;;;;;;;38.35;25.98;;;;;;;;;;6163067;23;20001;-81
2022/10/30 00:11:40;;;;;;;42.70;27.30;;;;;;;;;;6187930;23;20103;-79
2022/10/30 00:14:05;;;;;;;41.55;25.63;;;;;;;;;;6187887;23;20343;-78
2022/10/30 00:16:30;;;;;;;39.85;25.80;;;;;;;;;;6188205;23;20032;-80
2022/10/30 00:18:56;;;;;;;36.90;25.83;;;;;;;;;;6188517;23;20008;-80
2022/10/30 00:21:21;;;;;;;36.13;25.02;;;;;;;;;;6214347;23;20431;-79
2022/10/30 00:23:48;;;;;;;39.08;24.58;;;;;;;;;;6187567;23;19997;-79
2022/10/30 00:26:13;;;;;;;36.65;25.25;;;;;;;;;;6214527;23;20017;-80
2022/10/30 00:28:39;;;;;;;37.17;24.77;;;;;;;;;;6214682;23;20399;-79
2022/10/30 00:31:04;;;;;;;37.92;24.75;;;;;;;;;;6187394;23;20008;-80
2022/10/30 00:33:30;;;;;;;38.67;23.63;;;;;;;;;;6214008;23;20009;-79
2022/10/30 00:35:55;;;;;;;35.55;23.23;;;;;;;;;;6162661;23;20012;-80
2022/10/30 00:38:21;;;;;;;33.03;22.50;;;;;;;;;;6223965;23;20523;-79
2022/10/30 00:40:46;;;;;;;35.00;22.65;;;;;;;;;;6214398;23;20039;-79
2022/10/30 00:43:47;;;;;;;36.53;22.80;;;;;;;;;;6213761;23;20000;-80
2022/10/30 00:46:15;;;;;;;37.17;22.35;;;;;;;;;;6093132;23;20386;-79
2022/10/30 00:48:42;;;;;;;37.30;21.83;;;;;;;;;;6191869;23;20095;-79
2022/10/30 00:51:09;;;;;;;29.63;20.58;;;;;;;;;;6187571;23;20013;-80
2022/10/30 00:53:34;;;;;;;32.83;21.60;;;;;;;;;;6187594;23;20009;-79
2022/10/30 00:56:01;;;;;;;31.65;20.55;;;;;;;;;;6187326;23;20321;-80
2022/10/30 00:58:30;;;;;;;30.52;21.35;;;;;;;;;;6198406;23;20048;-80
2022/10/30 01:00:56;;;;;;;34.53;22.05;;;;;;;;;;6187594;23;20040;-80
2022/10/30 01:03:22;;;;;;;32.55;21.40;;;;;;;;;;6213403;23;20004;-80
2022/10/30 01:05:50;;;;;;;29.45;21.13;;;;;;;;;;6187642;23;20452;-79
2022/10/30 01:08:16;;;;;;;31.63;22.27;;;;;;;;;;6187989;23;20008;-78
2022/10/30 01:10:41;;;;;;;37.75;21.65;;;;;;;;;;6163229;23;20324;-79
2022/10/30 01:13:07;;;;;;;28.77;20.52;;;;;;;;;;6187461;23;20009;-78
2022/10/30 01:15:34;;;;;;;29.55;20.13;;;;;;;;;;6213646;23;20040;-80
2022/10/30 01:18:20;;;;;;;32.08;21.00;;;;;;;;;;6144088;23;19991;-80
2022/10/30 01:20:58;;;;;;;32.33;20.25;;;;;;;;;;6193842;23;20011;-80
2022/10/30 01:23:32;;;;;;;35.75;21.52;;;;;;;;;;6213752;23;20011;-79
2022/10/30 01:26:20;;;;;;;31.65;21.58;;;;;;;;;;6213487;23;20412;-79
2022/10/30 01:29:23;;;;;;;35.38;23.20;;;;;;;;;;6171606;23;20487;-79
2022/10/30 01:32:18;;;;;;;31.55;23.55;;;;;;;;;;6213416;23;20277;-79
2022/10/30 01:35:06;;;;;;;32.20;22.48;;;;;;;;;;6162509;23;20016;-80
2022/10/30 01:37:35;;;;;;;35.58;23.33;;;;;;;;;;6186834;23;19996;-80
2022/10/30 01:40:08;;;;;;;34.33;23.35;;;;;;;;;;6191810;23;20001;-80
2022/10/30 01:42:57;;;;;;;31.98;23.42;;;;;;;;;;6213655;23;20070;-80
2022/10/30 01:45:40;;;;;;;36.78;23.20;;;;;;;;;;6213359;23;20020;-81
2022/10/30 01:48:18;;;;;;;32.88;22.98;;;;;;;;;;6212941;23;20005;-79
2022/10/30 01:51:03;;;;;;;38.47;24.00;;;;;;;;;;6213687;23;20051;-79
2022/10/30 01:53:47;;;;;;;33.97;23.98;;;;;;;;;;6189411;23;20008;-79
2022/10/30 01:56:18;;;;;;;37.08;23.83;;;;;;;;;;6213202;23;20075;-78
2022/10/30 01:58:53;;;;;;;32.70;22.85;;;;;;;;;;6213576;23;20005;-79
2022/10/30 02:01:19;;;;;;;33.95;23.35;;;;;;;;;;6168875;23;20003;-79
2022/10/30 02:03:44;;;;;;;37.22;23.48;;;;;;;;;;6162832;23;20479;-80
2022/10/30 02:06:09;;;;;;;31.75;22.60;;;;;;;;;;6187200;23;20000;-80
2022/10/30 02:08:35;;;;;;;36.50;22.85;;;;;;;;;;6187492;23;20403;-80
2022/10/30 02:11:00;;;;;;;33.40;22.40;;;;;;;;;;6213808;23;20060;-79
2022/10/30 02:13:26;;;;;;;34.78;23.35;;;;;;;;;;6162191;23;20004;-79
2022/10/30 02:15:52;;;;;;;37.92;24.40;;;;;;;;;;6161892;23;20004;-81
2022/10/30 02:18:17;;;;;;;38.20;23.90;;;;;;;;;;6199189;23;20009;-79
2022/10/30 02:20:43;;;;;;;35.05;23.75;;;;;;;;;;6172779;23;20447;-79
2022/10/30 02:23:12;;;;;;;33.15;22.67;;;;;;;;;;6162672;23;20012;-80
2022/10/30 02:25:37;;;;;;;34.35;24.27;;;;;;;;;;6187292;23;20142;-79
2022/10/30 02:28:03;;;;;;;38.63;25.98;;;;;;;;;;6213326;23;20383;-79
2022/10/30 02:30:28;;;;;;;38.50;25.45;;;;;;;;;;6213654;23;20001;-79
2022/10/30 02:32:54;;;;;;;42.13;26.15;;;;;;;;;;6213244;23;20005;-80
2022/10/30 02:35:19;;;;;;;40.75;27.00;;;;;;;;;;6212936;23;20448;-81
2022/10/30 02:37:47;;;;;;;39.58;27.63;;;;;;;;;;6213561;23;20336;-80
2022/10/30 02:40:13;;;;;;;44.00;27.52;;;;;;;;;;6213485;23;20007;-80
2022/10/30 02:42:38;;;;;;;53.13;32.15;;;;;;;;;;6213571;23;20083;-80
2022/10/30 02:45:04;;;;;;;54.03;36.25;;;;;;;;;;6212745;23;20007;-79
2022/10/30 02:47:29;;;;;;;70.93;43.92;;;;;;;;;;6186655;23;20028;-79
2022/10/30 02:49:55;;;;;;;66.00;41.03;;;;;;;;;;6213753;23;19996;-80
2022/10/30 02:52:20;;;;;;;65.45;43.00;;;;;;;;;;6211667;23;20066;-79
2022/10/30 02:54:46;;;;;;;75.05;46.08;;;;;;;;;;6162106;23;20000;-79
2022/10/30 02:57:11;;;;;;;72.47;43.67;;;;;;;;;;6213073;23;20038;-80
2022/10/30 02:59:37;;;;;;;65.40;41.33;;;;;;;;;;6187816;23;20027;-81
2022/10/30 03:02:02;;;;;;;66.30;38.92;;;;;;;;;;6164905;23;20001;-80
2022/10/30 03:04:28;;;;;;;64.53;37.72;;;;;;;;;;6216562;23;20000;-80
2022/10/30 03:06:53;;;;;;;57.28;34.67;;;;;;;;;;6189668;23;20007;-79
2022/10/30 03:09:19;;;;;;;57.03;34.63;;;;;;;;;;6215294;23;20091;-80
2022/10/30 03:11:44;;;;;;;56.15;34.75;;;;;;;;;;6216054;23;20036;-80
2022/10/30 03:14:10;;;;;;;54.03;33.30;;;;;;;;;;6189558;23;20043;-80
2022/10/30 03:16:35;;;;;;;49.15;32.70;;;;;;;;;;6215716;23;20011;-80
2022/10/30 03:19:01;;;;;;;51.85;32.28;;;;;;;;;;6214859;23;20008;-80
2022/10/30 03:21:27;;;;;;;54.75;32.70;;;;;;;;;;6193374;23;20000;-79
2022/10/30 03:23:53;;;;;;;49.50;31.02;;;;;;;;;;6215037;23;19997;-80
2022/10/30 03:26:18;;;;;;;50.40;30.80;;;;;;;;;;6187979;23;20044;-79
2022/10/30 03:28:44;;;;;;;49.20;31.35;;;;;;;;;;6214627;23;20055;-82
2022/10/30 03:31:14;;;;;;;50.95;32.03;;;;;;;;;;6214464;23;20012;-81
2022/10/30 03:33:39;;;;;;;52.75;32.47;;;;;;;;;;6163675;23;20356;-80
2022/10/30 03:36:06;;;;;;;49.10;33.20;;;;;;;;;;6187962;23;20044;-80
2022/10/30 03:38:31;;;;;;;55.53;34.38;;;;;;;;;;6163536;23;20446;-80
2022/10/30 03:40:57;;;;;;;58.38;37.35;;;;;;;;;;6164052;23;20008;-80
2022/10/30 03:43:23;;;;;;;61.63;38.15;;;;;;;;;;6168819;23;20009;-80
2022/10/30 03:45:49;;;;;;;60.38;38.80;;;;;;;;;;6214151;23;20000;-79
2022/10/30 03:48:15;;;;;;;62.35;37.78;;;;;;;;;;6215130;23;20000;-81
2022/10/30 03:50:41;;;;;;;63.45;40.78;;;;;;;;;;6215388;23;20451;-80
2022/10/30 03:53:06;;;;;;;62.42;39.00;;;;;;;;;;6215003;23;20055;-80
2022/10/30 03:55:31;;;;;;;56.88;37.53;;;;;;;;;;6187974;23;20130;-80
2022/10/30 03:57:57;;;;;;;63.30;38.70;;;;;;;;;;6214322;23;19996;-79
2022/10/30 04:00:22;;;;;;;65.80;39.25;;;;;;;;;;6188529;23;20107;-80
2022/10/30 04:02:48;;;;;;;62.75;39.45;;;;;;;;;;6219237;23;19997;-79
2022/10/30 04:05:15;;;;;;;64.30;39.60;;;;;;;;;;6164016;23;20015;-80
2022/10/30 04:07:40;;;;;;;66.82;39.83;;;;;;;;;;6188482;23;20007;-80
2022/10/30 04:10:06;;;;;;;64.97;41.10;;;;;;;;;;6212587;23;20317;-80
2022/10/30 04:12:31;;;;;;;62.60;39.60;;;;;;;;;;6187478;23;20009;-80
2022/10/30 04:14:57;;;;;;;66.10;38.58;;;;;;;;;;6214398;23;20005;-80
2022/10/30 04:17:22;;;;;;;58.55;37.50;;;;;;;;;;6162714;23;20036;-80
2022/10/30 04:19:48;;;;;;;58.35;35.85;;;;;;;;;;6214749;23;20496;-79
2022/10/30 04:22:13;;;;;;;58.08;34.45;;;;;;;;;;6214298;23;20028;-79
2022/10/30 04:24:39;;;;;;;54.78;34.70;;;;;;;;;;6188174;23;20067;-79
2022/10/30 04:27:04;;;;;;;59.13;35.55;;;;;;;;;;6213863;23;20012;-80
2022/10/30 04:29:30;;;;;;;53.22;34.25;;;;;;;;;;6214148;23;20428;-80
2022/10/30 04:31:55;;;;;;;49.10;32.33;;;;;;;;;;6213080;23;20440;-80
2022/10/30 04:34:21;;;;;;;50.38;31.90;;;;;;;;;;6214553;23;20385;-80
2022/10/30 04:36:47;;;;;;;42.35;28.52;;;;;;;;;;6213685;23;20083;-80
2022/10/30 04:39:12;;;;;;;39.58;28.65;;;;;;;;;;6214172;23;20321;-80
2022/10/30 04:41:38;;;;;;;39.78;28.15;;;;;;;;;;6187729;23;20015;-80
2022/10/30 04:44:03;;;;;;;47.17;27.45;;;;;;;;;;6217386;23;20024;-81
2022/10/30 04:46:30;;;;;;;40.50;26.73;;;;;;;;;;6214510;23;20005;-80
2022/10/30 04:48:56;;;;;;;43.70;26.80;;;;;;;;;;6214021;23;20024;-79
2022/10/30 04:51:22;;;;;;;42.20;26.60;;;;;;;;;;6188072;23;20348;-79
2022/10/30 04:53:47;;;;;;;40.63;27.38;;;;;;;;;;6187664;23;20004;-81
2022/10/30 04:56:13;;;;;;;42.03;26.77;;;;;;;;;;6213249;23;20005;-79
2022/10/30 04:58:39;;;;;;;41.33;26.40;;;;;;;;;;6214033;23;20004;-79
2022/10/30 05:01:05;;;;;;;38.83;26.77;;;;;;;;;;6187400;23;20004;-79
2022/10/30 05:03:30;;;;;;;41.22;27.23;;;;;;;;;;6216174;23;20410;-79
2022/10/30 05:05:58;;;;;;;38.05;26.20;;;;;;;;;;6214292;23;20444;-79
2022/10/30 05:08:23;;;;;;;40.55;26.85;;;;;;;;;;6213910;23;20001;-80
2022/10/30 05:10:48;;;;;;;40.65;25.90;;;;;;;;;;6162521;23;20413;-80
2022/10/30 05:13:14;;;;;;;41.13;25.67;;;;;;;;;;6213855;23;20009;-79
2022/10/30 05:15:39;;;;;;;36.08;25.02;;;;;;;;;;6187090;23;20009;-80
2022/10/30 05:18:05;;;;;;;37.75;25.40;;;;;;;;;;6162447;23;20463;-79
2022/10/30 05:20:30;;;;;;;34.53;25.67;;;;;;;;;;6187512;23;20004;-79
2022/10/30 05:22:56;;;;;;;44.22;27.55;;;;;;;;;;6187354;23;20051;-79
2022/10/30 05:25:22;;;;;;;44.60;28.42;;;;;;;;;;6167987;23;20035;-80
2022/10/30 05:27:48;;;;;;;47.20;28.98;;;;;;;;;;6162742;23;20068;-79
2022/10/30 05:30:13;;;;;;;45.00;30.58;;;;;;;;;;6214301;23;20004;-80
2022/10/30 05:32:39;;;;;;;48.33;29.50;;;;;;;;;;6162516;23;20454;-80
2022/10/30 05:35:04;;;;;;;45.40;28.90;;;;;;;;;;6185970;23;20440;-80
2022/10/30 05:37:30;;;;;;;48.28;29.15;;;;;;;;;;6213242;23;20345;-79
2022/10/30 05:39:55;;;;;;;44.88;28.60;;;;;;;;;;6213363;23;19996;-79
2022/10/30 05:42:21;;;;;;;42.95;28.52;;;;;;;;;;6187831;23;20079;-79
2022/10/30 05:44:46;;;;;;;42.50;28.38;;;;;;;;;;6214325;23;20000;-80
2022/10/30 05:47:12;;;;;;;44.65;28.90;;;;;;;;;;6186734;23;20004;-80
2022/10/30 05:49:37;;;;;;;41.85;27.75;;;;;;;;;;6213243;23;20005;-80
2022/10/30 05:52:03;;;;;;;48.10;28.05;;;;;;;;;;6186945;23;20005;-79
2022/10/30 05:54:28;;;;;;;45.33;26.92;;;;;;;;;;6186476;23;20416;-80
2022/10/30 05:56:55;;;;;;;38.63;26.90;;;;;;;;;;6213134;23;20001;-79
2022/10/30 05:59:21;;;;;;;39.83;25.98;;;;;;;;;;6212716;23;20012;-79
2022/10/30 06:01:46;;;;;;;39.50;24.75;;;;;;;;;;6161837;23;20420;-80
2022/10/30 06:04:12;;;;;;;37.08;24.20;;;;;;;;;;6187433;23;20005;-79
2022/10/30 06:06:37;;;;;;;40.83;24.58;;;;;;;;;;6186749;23;20340;-80
2022/10/30 06:09:03;;;;;;;44.55;24.25;;;;;;;;;;6186193;23;20005;-80
2022/10/30 06:11:29;;;;;;;35.75;23.55;;;;;;;;;;6187052;23;20403;-80
2022/10/30 06:13:54;;;;;;;33.03;23.17;;;;;;;;;;6213198;23;20005;-80
2022/10/30 06:16:20;;;;;;;38.10;23.27;;;;;;;;;;6186608;23;20348;-79
2022/10/30 06:18:45;;;;;;;31.02;21.92;;;;;;;;;;6213049;23;20098;-79
2022/10/30 06:21:10;;;;;;;33.95;22.30;;;;;;;;;;6186788;23;20023;-78
2022/10/30 06:23:36;;;;;;;34.85;22.92;;;;;;;;;;6213111;23;20503;-79
2022/10/30 06:26:01;;;;;;;33.00;22.95;;;;;;;;;;6216643;23;20027;-80
2022/10/30 06:28:27;;;;;;;31.88;22.20;;;;;;;;;;6186761;23;20463;-80
2022/10/30 06:30:53;;;;;;;31.50;19.88;;;;;;;;;;6186838;23;20020;-79
2022/10/30 06:33:19;;;;;;;28.95;20.15;;;;;;;;;;6136885;23;20005;-79
2022/10/30 06:35:47;;;;;;;30.27;19.77;;;;;;;;;;6214092;23;20466;-79
2022/10/30 06:38:14;;;;;;;29.42;18.95;;;;;;;;;;6139097;23;20007;-78
2022/10/30 06:40:39;;;;;;;27.42;18.45;;;;;;;;;;6164402;23;20028;-80
2022/10/30 06:43:05;;;;;;;25.00;17.58;;;;;;;;;;6163828;23;20000;-79
2022/10/30 06:45:30;;;;;;;30.00;17.70;;;;;;;;;;6188824;23;20001;-79
2022/10/30 06:47:55;;;;;;;26.60;17.65;;;;;;;;;;6166364;23;20399;-79
2022/10/30 06:50:21;;;;;;;28.35;17.83;;;;;;;;;;6215632;23;20008;-80
2022/10/30 06:52:47;;;;;;;25.33;17.17;;;;;;;;;;6214722;23;20005;-79
2022/10/30 06:55:13;;;;;;;26.88;16.55;;;;;;;;;;6188452;23;20080;-78
2022/10/30 06:57:38;;;;;;;25.20;16.35;;;;;;;;;;6163679;23;20055;-79
2022/10/30 07:00:04;;;;;;;23.45;15.07;;;;;;;;;;6188671;23;20009;-79
2022/10/30 07:02:30;;;;;;;24.42;15.95;;;;;;;;;;6163840;23;20063;-79
2022/10/30 07:04:55;;;;;;;24.35;15.18;;;;;;;;;;6163520;23;20004;-79
2022/10/30 07:07:21;;;;;;;22.88;15.18;;;;;;;;;;6194172;23;20488;-79
2022/10/30 07:09:46;;;;;;;28.55;15.57;;;;;;;;;;6188138;23;20032;-79
2022/10/30 07:12:12;;;;;;;29.45;13.80;;;;;;;;;;6188475;23;20005;-79
2022/10/30 07:14:37;;;;;;;22.83;13.32;;;;;;;;;;6214825;23;20001;-79
2022/10/30 07:17:03;;;;;;;25.80;13.75;;;;;;;;;;6214567;23;20004;-78
2022/10/30 07:19:28;;;;;;;22.75;12.85;;;;;;;;;;6163468;23;19996;-79
2022/10/30 07:21:54;;;;;;;19.45;12.43;;;;;;;;;;6188449;23;20343;-80
2022/10/30 07:24:19;;;;;;;15.93;10.60;;;;;;;;;;6215259;23;20000;-80
2022/10/30 07:26:45;;;;;;;19.38;9.55;;;;;;;;;;6205105;23;20498;-80
2022/10/30 07:29:10;;;;;;;11.25;6.50;;;;;;;;;;6188306;23;20005;-79
2022/10/30 07:31:36;;;;;;;14.15;6.00;;;;;;;;;;6215108;23;20004;-80
2022/10/30 07:34:01;;;;;;;12.13;6.90;;;;;;;;;;6214813;23;20024;-79
2022/10/30 07:36:26;;;;;;;10.43;6.07;;;;;;;;;;6214260;23;20011;-80
2022/10/30 07:38:52;;;;;;;9.93;6.13;;;;;;;;;;6214288;23;20075;-80
2022/10/30 07:41:18;;;;;;;13.45;5.18;;;;;;;;;;6213221;23;20424;-80
2022/10/30 07:43:43;;;;;;;9.93;5.28;;;;;;;;;;6188666;23;20027;-79
2022/10/30 07:46:09;;;;;;;8.45;5.05;;;;;;;;;;6212384;23;20420;-80
2022/10/30 07:48:34;;;;;;;8.50;4.90;;;;;;;;;;6188454;23;20004;-80
2022/10/30 07:51:00;;;;;;;8.57;5.05;;;;;;;;;;6214004;23;20055;-80
2022/10/30 07:53:25;;;;;;;7.53;4.85;;;;;;;;;;6214617;23;20008;-80
2022/10/30 07:55:51;;;;;;;12.35;4.18;;;;;;;;;;6214679;23;20004;-80
2022/10/30 07:58:16;;;;;;;9.25;4.35;;;;;;;;;;6214218;23;20404;-79
2022/10/30 08:00:42;;;;;;;9.02;4.43;;;;;;;;;;6188090;23;20402;-80
2022/10/30 08:03:07;;;;;;;6.95;4.10;;;;;;;;;;6238461;23;20001;-80
2022/10/30 08:05:33;;;;;;;5.90;3.92;;;;;;;;;;6187671;23;20040;-80
2022/10/30 08:07:59;;;;;;;8.45;4.03;;;;;;;;;;6189150;23;20000;-80
2022/10/30 08:10:24;;;;;;;9.35;3.78;;;;;;;;;;6187828;23;20055;-80
2022/10/30 08:12:50;;;;;;;7.00;3.72;;;;;;;;;;6214605;23;20011;-80
2022/10/30 08:15:15;;;;;;;7.88;3.47;;;;;;;;;;6212441;23;20043;-79
2022/10/30 08:17:45;;;;;;;8.98;3.38;;;;;;;;;;6188111;23;19997;-79
2022/10/30 08:20:11;;;;;;;10.48;3.47;;;;;;;;;;6212474;23;20325;-80
2022/10/30 08:22:47;;;;;;;6.68;3.65;;;;;;;;;;6214140;23;20008;-80
2022/10/30 08:25:13;;;;;;;7.15;3.15;;;;;;;;;;6188050;23;20020;-80
2022/10/30 08:27:38;;;;;;;11.15;3.50;;;;;;;;;;6139206;23;20004;-79
2022/10/30 08:30:04;;;;;;;9.60;3.40;;;;;;;;;;6187049;23;20005;-79
2022/10/30 08:32:30;;;;;;;8.38;3.60;;;;;;;;;;6212392;23;20070;-78
2022/10/30 08:34:55;;;;;;;5.47;3.55;;;;;;;;;;6165546;23;20055;-78
2022/10/30 08:37:20;;;;;;;7.65;3.65;;;;;;;;;;6187223;23;19993;-80
2022/10/30 08:39:46;;;;;;;7.28;3.50;;;;;;;;;;6213206;23;20498;-80
2022/10/30 08:42:12;;;;;;;8.45;3.40;;;;;;;;;;6187013;23;20440;-79
2022/10/30 08:44:38;;;;;;;9.20;4.00;;;;;;;;;;6214094;23;20004;-79
2022/10/30 08:47:04;;;;;;;7.72;3.90;;;;;;;;;;6187060;23;20035;-79
2022/10/30 08:49:29;;;;;;;9.18;3.88;;;;;;;;;;6213395;23;20005;-79
2022/10/30 08:51:55;;;;;;;8.40;3.65;;;;;;;;;;6137490;23;20028;-79
2022/10/30 08:54:20;;;;;;;8.35;3.90;;;;;;;;;;6187509;23;20008;-78
2022/10/30 08:56:46;;;;;;;11.60;4.15;;;;;;;;;;6186944;23;20001;-80
2022/10/30 08:59:11;;;;;;;10.10;3.55;;;;;;;;;;6186948;23;20015;-76
2022/10/30 09:01:37;;;;;;;12.82;3.78;;;;;;;;;;6213586;23;20000;-76
2022/10/30 09:04:02;;;;;;;6.05;4.03;;;;;;;;;;6186986;23;20000;-78
2022/10/30 09:06:29;;;;;;;13.27;3.70;;;;;;;;;;6213478;23;20078;-79
2022/10/30 09:08:55;;;;;;;10.68;3.45;;;;;;;;;;6213990;23;20011;-78
2022/10/30 09:11:20;;;;;;;13.63;3.40;;;;;;;;;;6191455;23;20402;-78
2022/10/30 09:13:45;;;;;;;10.93;3.95;;;;;;;;;;6213947;23;20201;-78
2022/10/30 09:16:11;;;;;;;8.27;3.85;;;;;;;;;;6214057;23;20036;-79
2022/10/30 09:18:36;;;;;;;6.63;3.92;;;;;;;;;;6213428;23;20008;-79
2022/10/30 09:21:02;;;;;;;9.98;4.03;;;;;;;;;;6161878;23;20064;-80
2022/10/30 09:23:27;;;;;;;14.88;4.70;;;;;;;;;;6187097;23;20340;-79
2022/10/30 09:25:56;;;;;;;9.07;4.43;;;;;;;;;;6186603;23;20019;-77
2022/10/30 09:28:22;;;;;;;9.13;3.97;;;;;;;;;;6215370;23;20432;-78
2022/10/30 09:30:51;;;;;;;8.90;4.20;;;;;;;;;;6213327;23;20095;-78
2022/10/30 09:33:17;;;;;;;5.65;3.60;;;;;;;;;;6162746;23;20423;-78
2022/10/30 09:35:42;;;;;;;9.45;3.97;;;;;;;;;;6186667;23;20008;-77
2022/10/30 09:38:09;;;;;;;13.95;3.78;;;;;;;;;;6186913;23;20005;-79
2022/10/30 09:40:59;;;;;;;8.43;4.00;;;;;;;;;;6162437;23;20367;-80
2022/10/30 09:43:51;;;;;;;9.00;4.43;;;;;;;;;;6185802;23;20020;-78
2022/10/30 09:46:34;;;;;;;10.05;3.92;;;;;;;;;;6165490;23;20662;-77
2022/10/30 09:49:15;;;;;;;12.55;4.20;;;;;;;;;;6186588;23;20094;-77
2022/10/30 09:52:12;;;;;;;8.18;4.15;;;;;;;;;;6162711;23;20008;-76
2022/10/30 09:54:50;;;;;;;11.13;4.38;;;;;;;;;;6189599;23;20020;-79
2022/10/30 09:57:27;;;;;;;10.23;4.72;;;;;;;;;;6212839;23;20000;-78
2022/10/30 10:00:19;;;;;;;10.52;4.57;;;;;;;;;;6187029;23;20011;-77
2022/10/30 10:02:56;;;;;;;13.73;4.88;;;;;;;;;;6157352;23;20416;-78
2022/10/30 10:05:23;;;;;;;10.00;5.32;;;;;;;;;;6186389;23;20004;-78
2022/10/30 10:07:51;;;;;;;10.32;4.60;;;;;;;;;;6186894;23;20040;-78
2022/10/30 10:10:21;;;;;;;10.80;4.10;;;;;;;;;;6163306;23;20007;-78
2022/10/30 10:12:47;;;;;;;;;;;;;;;;;;6164977;23;20071;-80
2022/10/30 10:15:23;;;;;;;12.65;3.92;;;;;;;;;;6212739;23;19912;-79
2022/10/30 10:17:48;;;;;;;9.38;3.92;;;;;;;;;;6187671;23;20008;-78
2022/10/30 10:20:35;;;;;;;7.18;2.83;;;;;;;;;;6186582;23;20000;-79
2022/10/30 10:23:04;;;;;;;7.53;3.40;;;;;;;;;;6186221;23;20058;-79
2022/10/30 10:25:30;;;;;;;7.37;3.53;;;;;;;;;;6212789;23;20012;-79
2022/10/30 10:28:04;;;;;;;7.75;3.13;;;;;;;;;;6213319;23;20382;-79
2022/10/30 10:30:35;;;;;;;7.93;2.97;;;;;;;;;;6192672;23;20444;-79
2022/10/30 10:33:23;;;;;;;9.75;3.42;;;;;;;;;;6162754;23;20005;-80
2022/10/30 10:35:52;;;;;;;9.60;2.75;;;;;;;;;;6186295;23;20008;-79
2022/10/30 10:38:54;;;;;;;7.88;3.03;;;;;;;;;;6213205;23;19992;-78
2022/10/30 10:41:41;;;;;;;7.97;3.55;;;;;;;;;;6213062;23;20000;-79
2022/10/30 10:44:18;;;;;;;9.73;3.95;;;;;;;;;;6212449;23;20079;-79
2022/10/30 10:47:18;;;;;;;6.63;3.00;;;;;;;;;;6211757;23;20016;-79
2022/10/30 10:49:59;;;;;;;15.68;5.18;;;;;;;;;;6189763;23;19996;-78
2022/10/30 10:52:39;;;;;;;15.13;6.78;;;;;;;;;;6188082;23;20009;-80
2022/10/30 10:55:08;;;;;;;14.63;4.50;;;;;;;;;;6160712;23;20087;-79
2022/10/30 10:57:35;;;;;;;;;;;;;;;;;;6186696;23;20460;-79
2022/10/30 11:00:06;;;;;;;9.48;3.33;;;;;;;;;;6186850;23;19986;-80
2022/10/30 11:02:44;;;;;;;8.88;3.40;;;;;;;;;;6212872;23;20071;-79
2022/10/30 11:05:12;;;;;;;7.75;3.20;;;;;;;;;;6186396;23;20436;-80
2022/10/30 11:07:46;;;;;;;6.93;3.22;;;;;;;;;;6212872;23;19997;-77
2022/10/30 11:10:13;;;;;;;7.40;2.40;;;;;;;;;;6190285;23;20011;-79
2022/10/30 11:12:39;;;;;;;7.60;1.77;;;;;;;;;;6187069;23;20008;-79
2022/10/30 11:15:15;;;;;;;5.15;1.85;;;;;;;;;;6186240;23;20446;-79
2022/10/30 11:18:06;;;;;;;6.50;1.90;;;;;;;;;;6188180;23;20092;-80
2022/10/30 11:20:55;;;;;;;12.65;2.42;;;;;;;;;;6164620;23;20393;-81
2022/10/30 11:23:38;;;;;;;7.55;2.00;;;;;;;;;;6188481;23;20040;-80
2022/10/30 11:26:16;;;;;;;8.05;1.90;;;;;;;;;;6201723;23;20019;-79
2022/10/30 11:28:52;;;;;;;10.35;2.47;;;;;;;;;;6224819;22;20099;-80
2022/10/30 11:31:26;;;;;;;7.13;2.03;;;;;;;;;;6219215;23;20458;-79
2022/10/30 11:33:52;;;;;;;4.88;1.88;;;;;;;;;;6218937;23;20007;-80
2022/10/30 11:36:21;;;;;;;12.82;3.03;;;;;;;;;;6192399;23;20004;-78
2022/10/30 11:38:46;;;;;;;6.57;3.13;;;;;;;;;;6218340;23;20000;-77
2022/10/30 11:41:12;;;;;;;9.23;3.45;;;;;;;;;;6218611;23;20043;-77
2022/10/30 11:43:38;;;;;;;17.88;3.95;;;;;;;;;;6218281;23;20008;-78
2022/10/30 11:46:08;;;;;;;9.80;3.40;;;;;;;;;;6219983;23;20004;-77
2022/10/30 11:48:33;;;;;;;9.90;2.97;;;;;;;;;;6197133;23;20004;-79
2022/10/30 11:51:00;;;;;;;9.18;2.70;;;;;;;;;;6168692;23;20458;-81
2022/10/30 11:53:38;;;;;;;15.23;2.65;;;;;;;;;;6192996;23;20428;-80
2022/10/30 11:56:19;;;;;;;7.43;3.10;;;;;;;;;;6218029;23;20008;-80
2022/10/30 11:58:46;;;;;;;7.43;3.03;;;;;;;;;;6220488;23;20036;-80
2022/10/30 12:01:27;;;;;;;7.50;3.63;;;;;;;;;;6218215;23;20347;-80
2022/10/30 12:03:53;;;;;;;13.70;3.30;;;;;;;;;;6217906;23;20031;-80
2022/10/30 12:06:26;;;;;;;8.52;3.70;;;;;;;;;;6218103;23;20007;-77
2022/10/30 12:09:11;;;;;;;11.50;3.75;;;;;;;;;;6219210;23;20047;-79
2022/10/30 12:11:37;;;;;;;6.60;2.33;;;;;;;;;;6194091;23;20431;-79
2022/10/30 12:14:02;;;;;;;4.35;2.38;;;;;;;;;;6167889;23;20034;-80
2022/10/30 12:16:28;;;;;;;5.65;1.65;;;;;;;;;;6192902;23;20462;-78
2022/10/30 12:19:21;;;;;;;4.07;1.77;;;;;;;;;;6192995;23;20065;-78
2022/10/30 12:21:48;;;;;;;17.25;1.80;;;;;;;;;;6215313;23;20008;-78
2022/10/30 12:24:33;;;;;;;7.15;1.77;;;;;;;;;;6217829;23;20004;-78
2022/10/30 12:27:02;;;;;;;8.32;1.92;;;;;;;;;;6192839;23;20015;-77
2022/10/30 12:29:41;;;;;;;5.45;1.65;;;;;;;;;;6194528;23;20011;-80
2022/10/30 12:32:09;;;;;;;4.20;1.57;;;;;;;;;;6218871;23;19996;-79
2022/10/30 12:34:56;;;;;;;10.52;2.30;;;;;;;;;;6244379;23;20227;-77
2022/10/30 12:37:25;;;;;;;8.27;3.20;;;;;;;;;;6244066;23;19996;-77
2022/10/30 12:39:59;;;;;;;19.37;4.37;;;;;;;;;;6192988;23;20015;-77
2022/10/30 12:42:25;;;;;;;15.68;4.80;;;;;;;;;;6244605;23;20000;-80
2022/10/30 12:44:54;;;;;;;12.05;4.25;;;;;;;;;;6244249;23;20054;-78
2022/10/30 12:47:29;;;;;;;13.18;3.92;;;;;;;;;;6192346;23;20355;-79
2022/10/30 12:50:18;;;;;;;10.43;2.92;;;;;;;;;;6198554;23;20004;-80
2022/10/30 12:53:05;;;;;;;11.15;2.67;;;;;;;;;;6245219;23;20004;-79
2022/10/30 12:55:38;;;;;;;8.18;2.38;;;;;;;;;;6195168;23;20439;-79
2022/10/30 12:58:22;;;;;;;7.00;2.30;;;;;;;;;;6217924;23;20059;-79
2022/10/30 13:00:56;;;;;;;10.45;1.90;;;;;;;;;;6218167;23;20000;-80
2022/10/30 13:03:36;;;;;;;6.70;2.00;;;;;;;;;;6192787;23;20402;-78
2022/10/30 13:06:06;;;;;;;;;;;;;;;;;;6217893;23;20027;-80
2022/10/30 13:08:37;;;;;;;;;;;;;;;;;;6217591;23;19934;-79
2022/10/30 13:11:20;;;;;;;17.08;1.98;;;;;;;;;;6245252;23;19908;-79
2022/10/30 13:13:48;;;;;;;12.23;2.55;;;;;;;;;;6193536;23;20427;-80
2022/10/30 13:16:16;;;;;;;11.73;2.10;;;;;;;;;;6192173;23;20111;-80
2022/10/30 13:18:41;;;;;;;14.85;2.40;;;;;;;;;;6192489;23;20004;-80
2022/10/30 13:21:10;;;;;;;12.43;2.30;;;;;;;;;;6217736;23;20056;-79
2022/10/30 13:23:46;;;;;;;8.63;2.28;;;;;;;;;;6217068;23;20033;-79
2022/10/30 13:26:20;;;;;;;12.85;2.13;;;;;;;;;;6228412;23;20344;-79
2022/10/30 13:28:50;;;;;;;13.77;2.58;;;;;;;;;;6162967;23;20094;-80
2022/10/30 13:31:22;;;;;;;13.00;2.00;;;;;;;;;;6166743;23;20009;-80
2022/10/30 13:34:10;;;;;;;7.20;1.80;;;;;;;;;;6189829;23;20008;-79
2022/10/30 13:37:01;;;;;;;13.38;2.30;;;;;;;;;;6186702;23;20415;-78
2022/10/30 13:39:47;;;;;;;8.55;2.10;;;;;;;;;;6190907;23;20008;-79
2022/10/30 13:42:28;;;;;;;8.10;2.10;;;;;;;;;;6190400;23;20407;-78
2022/10/30 13:45:04;;;;;;;12.93;1.92;;;;;;;;;;6213332;23;20063;-80
2022/10/30 13:48:04;;;;;;;10.40;2.05;;;;;;;;;;6162740;23;20028;-79
2022/10/30 13:50:35;;;;;;;15.88;2.25;;;;;;;;;;6175837;23;20008;-80
2022/10/30 13:53:02;;;;;;;8.05;2.10;;;;;;;;;;6196180;23;20432;-80
2022/10/30 13:55:32;;;;;;;21.35;2.13;;;;;;;;;;6162454;23;20008;-79
2022/10/30 13:58:20;;;;;;;18.52;2.40;;;;;;;;;;6136457;23;20386;-79
2022/10/30 14:01:08;;;;;;;15.93;2.22;;;;;;;;;;6191412;23;20432;-78
2022/10/30 14:03:44;;;;;;;6.47;1.98;;;;;;;;;;6188282;23;20514;-80
2022/10/30 14:06:39;;;;;;;12.80;2.22;;;;;;;;;;6161948;23;20036;-79
2022/10/30 14:09:14;;;;;;;15.18;1.90;;;;;;;;;;6186866;23;20424;-79
2022/10/30 14:11:39;;;;;;;20.67;2.08;;;;;;;;;;6140916;23;20024;-79
2022/10/30 14:14:28;;;;;;;10.15;2.00;;;;;;;;;;6168425;23;20005;-78
2022/10/30 14:17:06;;;;;;;16.70;2.28;;;;;;;;;;6187115;23;20091;-79
2022/10/30 14:19:31;;;;;;;15.40;2.05;;;;;;;;;;6213822;23;20352;-80
2022/10/30 14:21:57;;;;;;;8.23;2.08;;;;;;;;;;6189429;23;20005;-80
2022/10/30 14:24:23;;;;;;;22.08;2.17;;;;;;;;;;6162150;23;20000;-79
2022/10/30 14:26:53;;;;;;;7.78;2.08;;;;;;;;;;6186598;23;20091;-79
2022/10/30 14:29:33;;;;;;;9.88;2.20;;;;;;;;;;6213570;23;20004;-79
2022/10/30 14:31:59;;;;;;;7.05;2.00;;;;;;;;;;6187999;23;20009;-78
2022/10/30 14:34:49;;;;;;;6.70;2.10;;;;;;;;;;6167055;23;20313;-78
2022/10/30 14:37:15;;;;;;;7.93;2.22;;;;;;;;;;6213818;23;20354;-79
2022/10/30 14:39:41;;;;;;;11.40;2.40;;;;;;;;;;6165516;23;20424;-79
2022/10/30 14:42:19;;;;;;;11.65;2.80;;;;;;;;;;6163551;23;20008;-79
2022/10/30 14:45:06;;;;;;;9.35;2.67;;;;;;;;;;6213436;23;20032;-79